sensor_id;sensor_type;location;lat;lon;timestamp;pressure;altitude;pressure_sealevel;temperature;humidity
71573;BME280;59408;51.032;9.410;2023-02-20T00:00:06;99933.28;;;4.38;100.00
71573;BME280;59408;51.032;9.410;2023-02-20T00:02:33;99916.81;;;4.35;100.00
71573;BME280;59408;51.032;9.410;2023-02-20T00:04:59;99917.38;;;4.32;100.00
71573;BME280;59408;51.032;9.410;2023-02-20T00:07:26;99925.75;;;4.30;100.00
71573;BME280;59408;51.032;9.410;2023-02-20T00:09:52;99921.41;;;4.29;100.00
71573;BME280;59408;51.032;9.410;2023-02-20T00:12:20;99920.91;;;4.27;100.00
71573;BME280;59408;51.032;9.410;2023-02-20T00:14:47;99922.25;;;4.24;100.00
71573;BME280;59408;51.032;9.410;2023-02-20T00:17:14;99911.72;;;4.23;100.00
71573;BME280;59408;51.032;9.410;2023-02-20T00:19:40;99910.66;;;4.24;100.00
71573;BME280;59408;51.032;9.410;2023-02-20T00:22:07;99916.03;;;4.24;100.00
71573;BME280;59408;51.032;9.410;2023-02-20T00:24:33;99914.44;;;4.23;100.00
71573;BME280;59408;51.032;9.410;2023-02-20T00:27:00;99914.97;;;4.25;100.00
71573;BME280;59408;51.032;9.410;2023-02-20T00:29:28;99909.56;;;4.25;100.00
71573;BME280;59408;51.032;9.410;2023-02-20T00:31:56;99910.38;;;4.25;100.00
71573;BME280;59408;51.032;9.410;2023-02-20T00:34:26;99908.75;;;4.19;100.00
71573;BME280;59408;51.032;9.410;2023-02-20T00:36:53;99914.47;;;4.18;100.00
71573;BME280;59408;51.032;9.410;2023-02-20T00:39:20;99920.09;;;4.21;100.00
71573;BME280;59408;51.032;9.410;2023-02-20T00:41:47;99922.53;;;4.23;100.00
71573;BME280;59408;51.032;9.410;2023-02-20T00:44:13;99919.56;;;4.24;100.00
71573;BME280;59408;51.032;9.410;2023-02-20T00:46:41;99918.47;;;4.20;100.00
71573;BME280;59408;51.032;9.410;2023-02-20T00:49:08;99913.63;;;4.22;100.00
71573;BME280;59408;51.032;9.410;2023-02-20T00:51:34;99923.38;;;4.18;100.00
71573;BME280;59408;51.032;9.410;2023-02-20T00:54:01;99924.19;;;4.14;100.00
71573;BME280;59408;51.032;9.410;2023-02-20T00:56:28;99913.09;;;4.15;100.00
71573;BME280;59408;51.032;9.410;2023-02-20T00:58:55;99905.00;;;4.10;100.00
71573;BME280;59408;51.032;9.410;2023-02-20T01:01:21;99905.00;;;4.10;100.00
71573;BME280;59408;51.032;9.410;2023-02-20T01:03:49;99906.13;;;4.09;100.00
71573;BME280;59408;51.032;9.410;2023-02-20T01:06:16;99908.00;;;4.09;100.00
71573;BME280;59408;51.032;9.410;2023-02-20T01:08:43;99899.91;;;4.09;100.00
71573;BME280;59408;51.032;9.410;2023-02-20T01:11:09;99898.84;;;4.00;100.00
71573;BME280;59408;51.032;9.410;2023-02-20T01:13:36;99912.34;;;3.95;99.50
71573;BME280;59408;51.032;9.410;2023-02-20T01:16:03;99914.25;;;3.89;99.94
71573;BME280;59408;51.032;9.410;2023-02-20T01:18:31;99908.03;;;3.83;100.00
71573;BME280;59408;51.032;9.410;2023-02-20T01:20:59;99916.13;;;3.83;99.26
71573;BME280;59408;51.032;9.410;2023-02-20T01:23:25;99920.75;;;3.78;99.68
71573;BME280;59408;51.032;9.410;2023-02-20T01:25:52;99916.19;;;3.73;100.00
71573;BME280;59408;51.032;9.410;2023-02-20T01:28:18;99912.13;;;3.71;100.00
71573;BME280;59408;51.032;9.410;2023-02-20T01:30:45;99915.63;;;3.66;100.00
71573;BME280;59408;51.032;9.410;2023-02-20T01:33:12;99913.22;;;3.60;100.00
71573;BME280;59408;51.032;9.410;2023-02-20T01:35:38;99918.06;;;3.58;100.00
71573;BME280;59408;51.032;9.410;2023-02-20T01:38:07;99912.94;;;3.61;100.00
71573;BME280;59408;51.032;9.410;2023-02-20T01:40:33;99888.66;;;3.61;100.00
71573;BME280;59408;51.032;9.410;2023-02-20T01:43:01;99905.38;;;3.58;100.00
71573;BME280;59408;51.032;9.410;2023-02-20T01:45:32;99895.94;;;3.61;100.00
71573;BME280;59408;51.032;9.410;2023-02-20T01:47:59;99882.75;;;3.54;100.00
71573;BME280;59408;51.032;9.410;2023-02-20T01:50:29;99891.09;;;3.53;100.00
71573;BME280;59408;51.032;9.410;2023-02-20T01:53:01;99895.44;;;3.54;100.00
71573;BME280;59408;51.032;9.410;2023-02-20T01:55:33;99888.69;;;3.51;100.00
71573;BME280;59408;51.032;9.410;2023-02-20T01:58:04;99886.78;;;3.51;100.00
71573;BME280;59408;51.032;9.410;2023-02-20T02:00:31;99891.91;;;3.53;100.00
71573;BME280;59408;51.032;9.410;2023-02-20T02:03:03;99897.84;;;3.55;100.00
71573;BME280;59408;51.032;9.410;2023-02-20T02:05:32;99896.50;;;3.47;100.00
71573;BME280;59408;51.032;9.410;2023-02-20T02:08:00;99899.75;;;3.44;99.81
71573;BME280;59408;51.032;9.410;2023-02-20T02:10:34;99890.56;;;3.40;100.00
71573;BME280;59408;51.032;9.410;2023-02-20T02:13:02;99885.72;;;3.37;99.95
71573;BME280;59408;51.032;9.410;2023-02-20T02:15:28;99884.09;;;3.31;100.00
71573;BME280;59408;51.032;9.410;2023-02-20T02:18:16;99890.56;;;3.30;99.74
71573;BME280;59408;51.032;9.410;2023-02-20T02:21:11;99879.53;;;3.27;99.80
71573;BME280;59408;51.032;9.410;2023-02-20T02:24:07;99882.50;;;3.25;99.68
71573;BME280;59408;51.032;9.410;2023-02-20T02:27:08;99870.09;;;3.24;99.39
71573;BME280;59408;51.032;9.410;2023-02-20T02:29:57;99868.47;;;3.13;99.93
71573;BME280;59408;51.032;9.410;2023-02-20T02:38:43;99864.16;;;3.07;100.00
71573;BME280;59408;51.032;9.410;2023-02-20T02:41:17;99865.75;;;3.03;100.00
71573;BME280;59408;51.032;9.410;2023-02-20T02:43:49;99863.88;;;2.98;100.00
71573;BME280;59408;51.032;9.410;2023-02-20T02:46:24;99861.47;;;2.97;100.00
71573;BME280;59408;51.032;9.410;2023-02-20T02:48:56;99854.44;;;2.96;100.00
71573;BME280;59408;51.032;9.410;2023-02-20T02:51:29;99842.31;;;2.93;100.00
71573;BME280;59408;51.032;9.410;2023-02-20T02:54:07;99831.00;;;2.86;100.00
71573;BME280;59408;51.032;9.410;2023-02-20T02:56:34;99835.84;;;2.89;100.00
71573;BME280;59408;51.032;9.410;2023-02-20T02:59:01;99841.50;;;2.88;100.00
71573;BME280;59408;51.032;9.410;2023-02-20T03:01:30;99846.91;;;2.88;100.00
71573;BME280;59408;51.032;9.410;2023-02-20T03:03:59;99852.56;;;2.86;100.00
71573;BME280;59408;51.032;9.410;2023-02-20T03:06:29;99851.75;;;2.91;100.00
71573;BME280;59408;51.032;9.410;2023-02-20T03:09:00;99841.50;;;2.88;100.00
71573;BME280;59408;51.032;9.410;2023-02-20T03:11:31;99828.59;;;2.90;100.00
71573;BME280;59408;51.032;9.410;2023-02-20T03:14:01;99836.38;;;2.86;100.00
71573;BME280;59408;51.032;9.410;2023-02-20T03:16:36;99833.97;;;2.90;100.00
71573;BME280;59408;51.032;9.410;2023-02-20T03:19:08;99840.19;;;2.90;100.00
71573;BME280;59408;51.032;9.410;2023-02-20T03:21:37;99836.94;;;2.98;100.00
71573;BME280;59408;51.032;9.410;2023-02-20T03:24:07;99829.13;;;3.07;100.00
71573;BME280;59408;51.032;9.410;2023-02-20T03:26:40;99820.22;;;3.11;100.00
71573;BME280;59408;51.032;9.410;2023-02-20T03:29:12;99822.94;;;3.17;100.00
71573;BME280;59408;51.032;9.410;2023-02-20T03:31:44;99828.31;;;3.17;100.00
71573;BME280;59408;51.032;9.410;2023-02-20T03:34:14;99813.47;;;3.19;100.00
71573;BME280;59408;51.032;9.410;2023-02-20T03:36:45;99811.03;;;3.23;100.00
71573;BME280;59408;51.032;9.410;2023-02-20T03:39:17;99806.72;;;3.22;100.00
71573;BME280;59408;51.032;9.410;2023-02-20T03:41:48;99801.88;;;3.24;100.00
71573;BME280;59408;51.032;9.410;2023-02-20T03:44:17;99790.56;;;3.27;100.00
71573;BME280;59408;51.032;9.410;2023-02-20T03:46:47;99794.06;;;3.27;100.00
71573;BME280;59408;51.032;9.410;2023-02-20T03:49:19;99792.44;;;3.26;100.00
71573;BME280;59408;51.032;9.410;2023-02-20T03:51:46;99796.78;;;3.27;100.00
71573;BME280;59408;51.032;9.410;2023-02-20T03:54:13;99785.69;;;3.29;100.00
71573;BME280;59408;51.032;9.410;2023-02-20T03:56:42;99786.22;;;3.31;100.00
71573;BME280;59408;51.032;9.410;2023-02-20T03:59:14;99796.72;;;3.37;100.00
71573;BME280;59408;51.032;9.410;2023-02-20T04:01:45;99799.16;;;3.44;100.00
71573;BME280;59408;51.032;9.410;2023-02-20T04:04:16;99807.22;;;3.49;100.00
71573;BME280;59408;51.032;9.410;2023-02-20T04:06:46;99810.72;;;3.49;100.00
71573;BME280;59408;51.032;9.410;2023-02-20T04:09:18;99809.66;;;3.50;100.00
71573;BME280;59408;51.032;9.410;2023-02-20T04:11:49;99799.41;;;3.53;100.00
71573;BME280;59408;51.032;9.410;2023-02-20T04:14:21;99802.09;;;3.53;100.00
71573;BME280;59408;51.032;9.410;2023-02-20T04:16:51;99795.91;;;3.52;100.00
71573;BME280;59408;51.032;9.410;2023-02-20T04:19:21;99783.22;;;3.47;100.00
71573;BME280;59408;51.032;9.410;2023-02-20T04:21:50;99794.00;;;3.47;100.00
71573;BME280;59408;51.032;9.410;2023-02-20T04:24:20;99788.88;;;3.51;100.00
71573;BME280;59408;51.032;9.410;2023-02-20T04:26:48;99778.66;;;3.53;100.00
71573;BME280;59408;51.032;9.410;2023-02-20T04:29:15;99777.28;;;3.50;100.00
71573;BME280;59408;51.032;9.410;2023-02-20T04:31:43;99780.00;;;3.50;100.00
71573;BME280;59408;51.032;9.410;2023-02-20T04:34:10;99788.88;;;3.51;100.00
71573;BME280;59408;51.032;9.410;2023-02-20T04:36:36;99805.88;;;3.51;100.00
71573;BME280;59408;51.032;9.410;2023-02-20T04:39:03;99798.84;;;3.56;100.00
71573;BME280;59408;51.032;9.410;2023-02-20T04:41:30;99800.50;;;3.51;100.00
71573;BME280;59408;51.032;9.410;2023-02-20T04:43:56;99803.72;;;3.48;100.00
71573;BME280;59408;51.032;9.410;2023-02-20T04:46:23;99813.16;;;3.51;100.00
71573;BME280;59408;51.032;9.410;2023-02-20T04:48:51;99798.88;;;3.50;100.00
71573;BME280;59408;51.032;9.410;2023-02-20T04:51:17;99794.81;;;3.48;100.00
71573;BME280;59408;51.032;9.410;2023-02-20T04:53:44;99793.19;;;3.47;100.00
71573;BME280;59408;51.032;9.410;2023-02-20T04:56:10;99804.53;;;3.39;100.00
71573;BME280;59408;51.032;9.410;2023-02-20T04:58:37;99792.69;;;3.40;100.00
71573;BME280;59408;51.032;9.410;2023-02-20T05:01:04;99803.19;;;3.46;100.00
71573;BME280;59408;51.032;9.410;2023-02-20T05:03:31;99798.06;;;3.50;100.00
71573;BME280;59408;51.032;9.410;2023-02-20T05:05:59;99787.81;;;3.47;100.00
71573;BME280;59408;51.032;9.410;2023-02-20T05:08:25;99795.63;;;3.48;100.00
71573;BME280;59408;51.032;9.410;2023-02-20T05:10:52;99793.47;;;3.50;100.00
71573;BME280;59408;51.032;9.410;2023-02-20T05:13:18;99775.94;;;3.53;100.00
71573;BME280;59408;51.032;9.410;2023-02-20T05:15:45;99774.31;;;3.47;100.00
71573;BME280;59408;51.032;9.410;2023-02-20T05:18:12;99773.81;;;3.45;100.00
71573;BME280;59408;51.032;9.410;2023-02-20T05:20:38;99771.38;;;3.43;100.00
71573;BME280;59408;51.032;9.410;2023-02-20T05:23:06;99768.97;;;3.42;100.00
71573;BME280;59408;51.032;9.410;2023-02-20T05:25:33;99769.22;;;3.40;100.00
71573;BME280;59408;51.032;9.410;2023-02-20T05:27:59;99776.50;;;3.40;100.00
71573;BME280;59408;51.032;9.410;2023-02-20T05:30:26;99758.19;;;3.37;100.00
71573;BME280;59408;51.032;9.410;2023-02-20T05:32:53;99749.31;;;3.36;100.00
71573;BME280;59408;51.032;9.410;2023-02-20T05:35:19;99743.91;;;3.36;100.00
71573;BME280;59408;51.032;9.410;2023-02-20T05:37:46;99747.09;;;3.48;100.00
71573;BME280;59408;51.032;9.410;2023-02-20T05:40:14;99743.88;;;3.41;100.00
71573;BME280;59408;51.032;9.410;2023-02-20T05:42:40;99741.19;;;3.41;100.00
71573;BME280;59408;51.032;9.410;2023-02-20T05:45:07;99748.50;;;3.36;100.00
71573;BME280;59408;51.032;9.410;2023-02-20T05:47:35;99743.09;;;3.36;100.00
71573;BME280;59408;51.032;9.410;2023-02-20T05:50:03;99731.50;;;3.35;100.00
71573;BME280;59408;51.032;9.410;2023-02-20T05:52:29;99738.75;;;3.40;100.00
71573;BME280;59408;51.032;9.410;2023-02-20T05:54:56;99740.63;;;3.39;100.00
71573;BME280;59408;51.032;9.410;2023-02-20T05:57:24;99727.44;;;3.38;100.00
71573;BME280;59408;51.032;9.410;2023-02-20T05:59:51;99731.22;;;3.37;100.00
71573;BME280;59408;51.032;9.410;2023-02-20T06:02:17;99728.81;;;3.35;100.00
71573;BME280;59408;51.032;9.410;2023-02-20T06:04:44;99727.47;;;3.33;100.00
71573;BME280;59408;51.032;9.410;2023-02-20T06:07:10;99720.72;;;3.30;100.00
71573;BME280;59408;51.032;9.410;2023-02-20T06:09:40;99728.53;;;3.32;100.00
71573;BME280;59408;51.032;9.410;2023-02-20T06:12:07;99720.44;;;3.32;100.00
71573;BME280;59408;51.032;9.410;2023-02-20T06:14:35;99725.31;;;3.35;100.00
71573;BME280;59408;51.032;9.410;2023-02-20T06:17:02;99725.28;;;3.40;100.00
71573;BME280;59408;51.032;9.410;2023-02-20T06:19:29;99734.44;;;3.44;100.00
71573;BME280;59408;51.032;9.410;2023-02-20T06:21:55;99736.31;;;3.43;100.00
71573;BME280;59408;51.032;9.410;2023-02-20T06:24:22;99745.22;;;3.44;100.00
71573;BME280;59408;51.032;9.410;2023-02-20T06:26:49;99740.91;;;3.43;100.00
71573;BME280;59408;51.032;9.410;2023-02-20T06:29:16;99747.13;;;3.43;100.00
71573;BME280;59408;51.032;9.410;2023-02-20T06:31:44;99740.38;;;3.41;100.00
71573;BME280;59408;51.032;9.410;2023-02-20T06:34:12;99746.31;;;3.38;100.00
71573;BME280;59408;51.032;9.410;2023-02-20T06:36:39;99736.91;;;3.35;100.00
71573;BME280;59408;51.032;9.410;2023-02-20T06:39:07;99739.59;;;3.30;100.00
71573;BME280;59408;51.032;9.410;2023-02-20T06:41:35;99739.31;;;3.32;100.00
71573;BME280;59408;51.032;9.410;2023-02-20T06:44:01;99752.25;;;3.35;100.00
71573;BME280;59408;51.032;9.410;2023-02-20T06:46:28;99737.41;;;3.37;100.00
71573;BME280;59408;51.032;9.410;2023-02-20T06:48:57;99735.75;;;3.46;100.00
71573;BME280;59408;51.032;9.410;2023-02-20T06:51:27;99736.84;;;3.50;100.00
71573;BME280;59408;51.032;9.410;2023-02-20T06:53:54;99733.88;;;3.52;100.00
71573;BME280;59408;51.032;9.410;2023-02-20T06:56:26;99733.34;;;3.55;100.00
71573;BME280;59408;51.032;9.410;2023-02-20T06:58:53;99731.94;;;3.58;100.00
71573;BME280;59408;51.032;9.410;2023-02-20T07:01:22;99725.22;;;3.60;100.00
71573;BME280;59408;51.032;9.410;2023-02-20T07:03:49;99733.31;;;3.60;100.00
71573;BME280;59408;51.032;9.410;2023-02-20T07:06:17;99730.06;;;3.58;100.00
71573;BME280;59408;51.032;9.410;2023-02-20T07:08:44;99725.97;;;3.66;99.88
71573;BME280;59408;51.032;9.410;2023-02-20T07:11:11;99716.81;;;3.67;100.00
71573;BME280;59408;51.032;9.410;2023-02-20T07:13:38;99720.31;;;3.72;99.92
71573;BME280;59408;51.032;9.410;2023-02-20T07:16:05;99726.47;;;3.78;99.27
71573;BME280;59408;51.032;9.410;2023-02-20T07:18:32;99708.13;;;3.80;99.39
71573;BME280;59408;51.032;9.410;2023-02-20T07:20:58;99722.38;;;3.85;98.79
71573;BME280;59408;51.032;9.410;2023-02-20T07:23:26;99717.25;;;3.89;98.97
71573;BME280;59408;51.032;9.410;2023-02-20T07:25:53;99705.06;;;3.97;98.18
71573;BME280;59408;51.032;9.410;2023-02-20T07:28:20;99697.47;;;4.04;98.25
71573;BME280;59408;51.032;9.410;2023-02-20T07:30:46;99706.84;;;4.11;98.04
71573;BME280;59408;51.032;9.410;2023-02-20T07:33:14;99702.78;;;4.14;97.84
71573;BME280;59408;51.032;9.410;2023-02-20T07:35:40;99693.28;;;4.21;98.31
71573;BME280;59408;51.032;9.410;2023-02-20T07:38:07;99693.28;;;4.21;98.10
71573;BME280;59408;51.032;9.410;2023-02-20T07:40:35;99694.97;;;4.17;98.05
71573;BME280;59408;51.032;9.410;2023-02-20T07:43:05;99688.16;;;4.20;98.52
71573;BME280;59408;51.032;9.410;2023-02-20T07:45:32;99701.66;;;4.20;98.49
71573;BME280;59408;51.032;9.410;2023-02-20T07:47:59;99701.66;;;4.20;98.75
71573;BME280;59408;51.032;9.410;2023-02-20T07:50:25;99687.34;;;4.24;99.20
71573;BME280;59408;51.032;9.410;2023-02-20T07:52:52;99691.88;;;4.29;98.04
71573;BME280;59408;51.032;9.410;2023-02-20T07:55:19;99693.28;;;4.26;98.22
71573;BME280;59408;51.032;9.410;2023-02-20T07:57:47;99688.09;;;4.30;99.09
71573;BME280;59408;51.032;9.410;2023-02-20T08:00:17;99704.31;;;4.30;98.41
71573;BME280;59408;51.032;9.410;2023-02-20T08:02:44;99690.53;;;4.32;98.71
71573;BME280;59408;51.032;9.410;2023-02-20T08:05:10;99679.69;;;4.37;98.50
71573;BME280;59408;51.032;9.410;2023-02-20T08:07:37;99701.81;;;4.39;97.81
71573;BME280;59408;51.032;9.410;2023-02-20T08:10:05;99690.69;;;4.45;97.70
71573;BME280;59408;51.032;9.410;2023-02-20T08:12:31;99688.50;;;4.47;97.54
71573;BME280;59408;51.032;9.410;2023-02-20T08:14:59;99683.34;;;4.51;97.38
71573;BME280;59408;51.032;9.410;2023-02-20T08:17:26;99688.47;;;4.52;97.65
71573;BME280;59408;51.032;9.410;2023-02-20T08:20:10;99685.44;;;4.59;97.57
71573;BME280;59408;51.032;9.410;2023-02-20T08:22:37;99673.22;;;4.67;97.08
71573;BME280;59408;51.032;9.410;2023-02-20T08:25:08;99668.63;;;4.67;96.63
71573;BME280;59408;51.032;9.410;2023-02-20T08:27:34;99674.78;;;4.73;96.66
71573;BME280;59408;51.032;9.410;2023-02-20T08:30:03;99666.97;;;4.71;96.37
71573;BME280;59408;51.032;9.410;2023-02-20T08:32:30;99657.19;;;4.75;96.39
71573;BME280;59408;51.032;9.410;2023-02-20T08:34:56;99669.84;;;4.80;96.99
71573;BME280;59408;51.032;9.410;2023-02-20T08:37:23;99674.66;;;4.83;96.26
71573;BME280;59408;51.032;9.410;2023-02-20T08:39:49;99673.38;;;4.80;96.00
71573;BME280;59408;51.032;9.410;2023-02-20T08:42:16;99672.78;;;4.88;96.59
71573;BME280;59408;51.032;9.410;2023-02-20T08:44:43;99673.31;;;4.85;95.92
71573;BME280;59408;51.032;9.410;2023-02-20T08:47:11;99673.25;;;4.95;96.19
71573;BME280;59408;51.032;9.410;2023-02-20T08:49:38;99679.38;;;5.01;96.26
71573;BME280;59408;51.032;9.410;2023-02-20T08:52:05;99678.28;;;5.02;95.06
71573;BME280;59408;51.032;9.410;2023-02-20T08:54:32;99680.69;;;5.09;94.72
71573;BME280;59408;51.032;9.410;2023-02-20T08:56:58;99688.03;;;5.03;94.96
71573;BME280;59408;51.032;9.410;2023-02-20T08:59:25;99683.22;;;5.00;94.59
71573;BME280;59408;51.032;9.410;2023-02-20T09:01:52;99676.66;;;5.06;94.41
71573;BME280;59408;51.032;9.410;2023-02-20T09:04:20;99662.50;;;5.14;94.06
71573;BME280;59408;51.032;9.410;2023-02-20T09:06:47;99673.03;;;5.16;94.39
71573;BME280;59408;51.032;9.410;2023-02-20T09:09:14;99661.84;;;5.22;94.24
71573;BME280;59408;51.032;9.410;2023-02-20T09:11:40;99672.03;;;5.30;93.93
71573;BME280;59408;51.032;9.410;2023-02-20T09:14:08;99661.63;;;5.43;93.01
71573;BME280;59408;51.032;9.410;2023-02-20T09:16:34;99662.44;;;5.43;91.27
71573;BME280;59408;51.032;9.410;2023-02-20T09:19:01;99662.59;;;5.52;90.68
71573;BME280;59408;51.032;9.410;2023-02-20T09:21:29;99656.00;;;5.58;90.66
71573;BME280;59408;51.032;9.410;2023-02-20T09:23:56;99648.41;;;5.60;89.64
71573;BME280;59408;51.032;9.410;2023-02-20T09:26:23;99655.81;;;5.54;90.73
71573;BME280;59408;51.032;9.410;2023-02-20T09:28:49;99655.28;;;5.52;90.68
71573;BME280;59408;51.032;9.410;2023-02-20T09:31:16;99655.81;;;5.73;89.89
71573;BME280;59408;51.032;9.410;2023-02-20T09:33:43;99652.59;;;5.71;89.57
71573;BME280;59408;51.032;9.410;2023-02-20T09:36:14;99643.16;;;5.87;89.54
71573;BME280;59408;51.032;9.410;2023-02-20T09:38:42;99636.34;;;6.08;89.19
71573;BME280;59408;51.032;9.410;2023-02-20T09:41:13;99639.19;;;6.49;87.48
71573;BME280;59408;51.032;9.410;2023-02-20T09:43:51;99635.63;;;6.54;87.92
71573;BME280;59408;51.032;9.410;2023-02-20T09:46:19;99639.56;;;6.75;86.40
71573;BME280;59408;51.032;9.410;2023-02-20T09:49:01;99631.59;;;6.65;86.34
71573;BME280;59408;51.032;9.410;2023-02-20T09:51:33;99644.06;;;6.66;86.40
71573;BME280;59408;51.032;9.410;2023-02-20T09:54:05;99633.06;;;6.44;87.44
71573;BME280;59408;51.032;9.410;2023-02-20T09:56:36;99626.72;;;6.35;88.03
71573;BME280;59408;51.032;9.410;2023-02-20T09:59:06;99627.78;;;6.53;87.07
71573;BME280;59408;51.032;9.410;2023-02-20T10:01:38;99618.06;;;6.65;86.21
71573;BME280;59408;51.032;9.410;2023-02-20T10:04:11;99620.91;;;6.87;85.70
71573;BME280;59408;51.032;9.410;2023-02-20T10:06:40;99614.91;;;7.18;84.59
71573;BME280;59408;51.032;9.410;2023-02-20T10:09:12;99613.09;;;7.13;83.88
71573;BME280;59408;51.032;9.410;2023-02-20T10:11:46;99607.84;;;7.31;83.90
71573;BME280;59408;51.032;9.410;2023-02-20T10:17:19;99594.81;;;7.33;83.63
71573;BME280;59408;51.032;9.410;2023-02-20T10:19:51;99598.41;;;7.55;83.15
71573;BME280;59408;51.032;9.410;2023-02-20T10:22:22;99591.38;;;7.90;82.00
71573;BME280;59408;51.032;9.410;2023-02-20T10:25:05;99595.31;;;8.07;81.63
71573;BME280;59408;51.032;9.410;2023-02-20T10:27:42;99588.75;;;8.30;80.27
71573;BME280;59408;51.032;9.410;2023-02-20T10:30:18;99596.75;;;8.26;79.71
71573;BME280;59408;51.032;9.410;2023-02-20T10:32:49;99618.50;;;8.26;78.45
71573;BME280;59408;51.032;9.410;2023-02-20T10:35:23;99590.00;;;8.24;78.92
71573;BME280;59408;51.032;9.410;2023-02-20T10:37:54;99592.28;;;8.30;77.70
71573;BME280;59408;51.032;9.410;2023-02-20T10:40:27;99579.84;;;8.38;77.25
71573;BME280;59408;51.032;9.410;2023-02-20T10:43:02;99601.28;;;8.62;76.20
71573;BME280;59408;51.032;9.410;2023-02-20T10:45:37;99601.34;;;8.48;77.41
71573;BME280;59408;51.032;9.410;2023-02-20T10:48:07;99601.00;;;8.72;76.24
71573;BME280;59408;51.032;9.410;2023-02-20T10:50:38;99599.25;;;8.76;75.56
71573;BME280;59408;51.032;9.410;2023-02-20T10:53:14;99592.53;;;8.43;74.50
71573;BME280;59408;51.032;9.410;2023-02-20T10:55:48;99590.66;;;8.52;75.86
71573;BME280;59408;51.032;9.410;2023-02-20T10:58:21;99599.38;;;8.62;74.57
71573;BME280;59408;51.032;9.410;2023-02-20T11:00:52;99587.09;;;8.73;74.64
71573;BME280;59408;51.032;9.410;2023-02-20T11:03:24;99598.28;;;8.72;73.05
71573;BME280;59408;51.032;9.410;2023-02-20T11:05:56;99609.09;;;8.55;73.85
71573;BME280;59408;51.032;9.410;2023-02-20T11:08:26;99584.06;;;8.44;73.06
71573;BME280;59408;51.032;9.410;2023-02-20T11:10:56;99586.97;;;8.79;74.41
71573;BME280;59408;51.032;9.410;2023-02-20T11:13:24;99574.81;;;9.24;74.69
71573;BME280;59408;51.032;9.410;2023-02-20T11:15:53;99573.44;;;9.04;74.58
71573;BME280;59408;51.032;9.410;2023-02-20T11:18:23;99572.03;;;9.07;72.40
71573;BME280;59408;51.032;9.410;2023-02-20T11:20:51;99559.00;;;8.95;72.49
71573;BME280;59408;51.032;9.410;2023-02-20T11:23:39;99553.75;;;8.99;72.79
71573;BME280;59408;51.032;9.410;2023-02-20T11:26:26;99549.53;;;9.32;71.63
71573;BME280;59408;51.032;9.410;2023-02-20T11:29:13;99572.66;;;9.12;72.04
71573;BME280;59408;51.032;9.410;2023-02-20T11:31:41;99546.16;;;9.18;72.10
71573;BME280;59408;51.032;9.410;2023-02-20T11:34:15;99545.53;;;9.30;72.50
71573;BME280;59408;51.032;9.410;2023-02-20T11:36:45;99536.41;;;8.86;72.56
71573;BME280;59408;51.032;9.410;2023-02-20T11:39:20;99533.81;;;8.72;73.22
71573;BME280;59408;51.032;9.410;2023-02-20T11:41:50;99510.25;;;9.07;73.32
71573;BME280;59408;51.032;9.410;2023-02-20T11:44:29;99505.03;;;9.20;73.26
71573;BME280;59408;51.032;9.410;2023-02-20T11:47:19;99504.72;;;9.81;71.96
71573;BME280;59408;51.032;9.410;2023-02-20T11:49:46;99521.22;;;9.42;71.71
71573;BME280;59408;51.032;9.410;2023-02-20T11:52:17;99500.41;;;9.46;72.33
71573;BME280;59408;51.032;9.410;2023-02-20T11:54:44;99489.34;;;9.42;71.83
71573;BME280;59408;51.032;9.410;2023-02-20T11:57:22;99477.47;;;9.38;71.07
71573;BME280;59408;51.032;9.410;2023-02-20T11:59:51;99491.56;;;9.58;71.12
71573;BME280;59408;51.032;9.410;2023-02-20T12:02:32;99501.50;;;9.79;71.05
71573;BME280;59408;51.032;9.410;2023-02-20T12:05:10;99486.28;;;9.78;70.31
71573;BME280;59408;51.032;9.410;2023-02-20T12:07:41;99478.59;;;9.80;70.34
71573;BME280;59408;51.032;9.410;2023-02-20T12:10:23;99471.81;;;10.04;69.75
71573;BME280;59408;51.032;9.410;2023-02-20T12:12:53;99470.38;;;9.98;70.57
71573;BME280;59408;51.032;9.410;2023-02-20T12:15:22;99473.34;;;10.22;69.71
71573;BME280;59408;51.032;9.410;2023-02-20T12:18:18;99471.09;;;10.24;70.07
71573;BME280;59408;51.032;9.410;2023-02-20T12:20:53;99459.53;;;10.36;70.19
71573;BME280;59408;51.032;9.410;2023-02-20T12:23:28;99472.25;;;10.14;68.76
71573;BME280;59408;51.032;9.410;2023-02-20T12:26:10;99461.63;;;10.30;69.38
71573;BME280;59408;51.032;9.410;2023-02-20T12:28:52;99459.16;;;10.84;69.66
71573;BME280;59408;51.032;9.410;2023-02-20T12:31:32;99459.25;;;10.96;66.59
71573;BME280;59408;51.032;9.410;2023-02-20T12:34:16;99445.16;;;10.56;68.45
71573;BME280;59408;51.032;9.410;2023-02-20T12:36:50;99448.59;;;10.82;69.02
71573;BME280;59408;51.032;9.410;2023-02-20T12:39:27;99457.38;;;10.88;68.10
71573;BME280;59408;51.032;9.410;2023-02-20T12:42:02;99448.13;;;11.22;67.18
71573;BME280;59408;51.032;9.410;2023-02-20T12:44:53;99456.06;;;11.15;67.52
71573;BME280;59408;51.032;9.410;2023-02-20T12:47:28;99452.50;;;10.93;66.52
71573;BME280;59408;51.032;9.410;2023-02-20T12:50:10;99445.94;;;11.15;66.49
71573;BME280;59408;51.032;9.410;2023-02-20T12:52:52;99451.34;;;11.65;65.98
71573;BME280;59408;51.032;9.410;2023-02-20T12:55:23;99431.56;;;11.81;66.27
71573;BME280;59408;51.032;9.410;2023-02-20T12:58:05;99430.75;;;11.47;65.17
71573;BME280;59408;51.032;9.410;2023-02-20T13:00:39;99425.47;;;11.63;66.01
71573;BME280;59408;51.032;9.410;2023-02-20T13:03:10;99425.88;;;11.53;66.91
71573;BME280;59408;51.032;9.410;2023-02-20T13:05:41;99419.59;;;11.73;65.62
71573;BME280;59408;51.032;9.410;2023-02-20T13:08:11;99429.81;;;11.64;65.28
71573;BME280;59408;51.032;9.410;2023-02-20T13:10:47;99414.41;;;11.59;65.65
71573;BME280;59408;51.032;9.410;2023-02-20T13:13:16;99411.38;;;11.73;65.94
71573;BME280;59408;51.032;9.410;2023-02-20T13:15:49;99401.44;;;11.56;65.38
71573;BME280;59408;51.032;9.410;2023-02-20T13:18:22;99407.25;;;11.67;65.48
71573;BME280;59408;51.032;9.410;2023-02-20T13:20:54;99395.91;;;11.77;65.19
71573;BME280;59408;51.032;9.410;2023-02-20T13:23:27;99394.69;;;12.11;64.59
71573;BME280;59408;51.032;9.410;2023-02-20T13:25:55;99387.63;;;11.98;64.46
71573;BME280;59408;51.032;9.410;2023-02-20T13:28:27;99386.25;;;12.04;64.26